Time;durP1;ratioP1;P1;durP2;ratioP2;P2;SDS_P1;SDS_P2;PMS_P1;PMS_P2;Temp;Humidity;BMP_temperature;BMP_pressure;BME280_temperature;BME280_humidity;BME280_pressure;Samples;Min_cycle;Max_cycle;Signal;HPM_P1;HPM_P2
2023/09/17 00:01:29;;;;;;;;;;;;;;;;;;5079083;28;19948;-70
2023/09/17 00:03:55;;;;;;;;;;;;;;;;;;5083702;28;19915;-70
2023/09/17 00:06:21;;;;;;;;;;;;;;;;;;5079680;28;19923;-71
2023/09/17 00:08:47;;;;;;;;;;;;;;;;;;5079092;28;19908;-72
2023/09/17 00:11:13;;;;;;;;;;;;;;;;;;5078935;28;20268;-71
2023/09/17 00:13:39;;;;;;;;;;;;;;;;;;5079906;28;19916;-72
2023/09/17 00:16:05;;;;;;;;;;;;;;;;;;5082384;28;19907;-71
2023/09/17 00:18:31;;;;;;;;;;;;;;;;;;5079019;28;19912;-72
2023/09/17 00:20:57;;;;;;;;;;;;;;;;;;5078876;28;20354;-72
2023/09/17 00:23:23;;;;;;;;;;;;;;;;;;5078639;28;20003;-73
2023/09/17 00:25:49;;;;;;;;;;;;;;;;;;5082396;28;19913;-73
2023/09/17 00:28:15;;;;;;;;;;;;;;;;;;5082491;28;20303;-74
2023/09/17 00:30:40;;;;;;;;;;;;;;;;;;5094188;28;19912;-74
2023/09/17 00:33:06;;;;;;;;;;;;;;;;;;5086302;28;19916;-74
2023/09/17 00:35:33;;;;;;;;;;;;;;;;;;5078791;28;19950;-74
2023/09/17 00:37:59;;;;;;;;;;;;;;;;;;5097531;28;19957;-74
2023/09/17 00:40:25;;;;;;;;;;;;;;;;;;5066631;28;20475;-75
2023/09/17 00:42:51;;;;;;;;;;;;;;;;;;5078517;28;19913;-76
2023/09/17 00:45:17;;;;;;;;;;;;;;;;;;5083533;28;19908;-75
2023/09/17 00:47:43;;;;;;;;;;;;;;;;;;5094976;28;19908;-75
2023/09/17 00:50:10;;;;;;;;;;;;;;;;;;5081133;28;19923;-75
2023/09/17 00:52:36;;;;;;;;;;;;;;;;;;5078430;28;19961;-75
2023/09/17 00:55:02;;;;;;;;;;;;;;;;;;5075602;28;19912;-75
2023/09/17 00:57:28;;;;;;;;;;;;;;;;;;5093641;28;20373;-75
2023/09/17 00:59:54;;;;;;;;;;;;;;;;;;5083715;28;19915;-75
2023/09/17 01:02:20;;;;;;;;;;;;;;;;;;5060511;28;19947;-75
2023/09/17 01:04:49;;;;;;;;;;;;;;;;;;5085605;28;19934;-77
2023/09/17 01:07:16;;;;;;;;;;;;;;;;;;5087320;28;20378;-77
2023/09/17 01:09:42;;;;;;;;;;;;;;;;;;5082363;28;20390;-77
2023/09/17 01:12:07;;;;;;;;;;;;;;;;;;5080857;28;19994;-74
2023/09/17 01:14:34;;;;;;;;;;;;;;;;;;5077714;28;19916;-74
2023/09/17 01:17:01;;;;;;;;;;;;;;;;;;5077709;28;20411;-74
2023/09/17 01:19:28;;;;;;;;;;;;;;;;;;5059768;28;19947;-73
2023/09/17 01:21:56;;;;;;;;;;;;;;;;;;5082400;28;19908;-74
2023/09/17 01:24:22;;;;;;;;;;;;;;;;;;5077531;28;19990;-74
2023/09/17 01:26:52;;;;;;;;;;;;;;;;;;5065412;28;19916;-76
2023/09/17 01:29:22;;;;;;;;;;;;;;;;;;5077110;28;19935;-77
2023/09/17 01:31:55;;;;;;;;;;;;;;;;;;5081139;28;19922;-76
2023/09/17 01:34:22;;;;;;;;;;;;;;;;;;5077321;28;20386;-77
2023/09/17 01:36:48;;;;;;;;;;;;;;;;;;5087658;28;19920;-77
2023/09/17 01:39:14;;;;;;;;;;;;;;;;;;5077159;28;19913;-75
2023/09/17 01:41:40;;;;;;;;;;;;;;;;;;5084652;28;19912;-76
2023/09/17 01:44:06;;;;;;;;;;;;;;;;;;5094817;28;20302;-74
2023/09/17 01:46:32;;;;;;;;;;;;;;;;;;5083324;28;19912;-76
2023/09/17 01:48:58;;;;;;;;;;;;;;;;;;5068475;28;19912;-75
2023/09/17 01:51:24;;;;;;;;;;;;;;;;;;5082397;28;19920;-75
2023/09/17 01:53:50;;;;;;;;;;;;;;;;;;5087459;28;19908;-75
2023/09/17 01:56:17;;;;;;;;;;;;;;;;;;5074491;28;19916;-75
2023/09/17 01:58:43;;;;;;;;;;;;;;;;;;5095134;28;20290;-76
2023/09/17 02:01:09;;;;;;;;;;;;;;;;;;5092605;28;19912;-75
2023/09/17 02:03:35;;;;;;;;;;;;;;;;;;5092533;28;19908;-75
2023/09/17 02:06:01;;;;;;;;;;;;;;;;;;5082882;28;19941;-75
2023/09/17 02:08:27;;;;;;;;;;;;;;;;;;5095176;28;19915;-75
2023/09/17 02:10:55;;;;;;;;;;;;;;;;;;5092459;28;20423;-75
2023/09/17 02:13:21;;;;;;;;;;;;;;;;;;5094871;28;20281;-75
2023/09/17 02:15:47;;;;;;;;;;;;;;;;;;5096785;28;19995;-75
2023/09/17 02:18:13;;;;;;;;;;;;;;;;;;5092973;28;19952;-76
2023/09/17 02:20:38;;;;;;;;;;;;;;;;;;5083061;28;20372;-75
2023/09/17 02:23:04;;;;;;;;;;;;;;;;;;5092751;28;19923;-76
2023/09/17 02:25:30;;;;;;;;;;;;;;;;;;5092445;28;19908;-75
2023/09/17 02:27:56;;;;;;;;;;;;;;;;;;5082960;28;20397;-76
2023/09/17 02:30:22;;;;;;;;;;;;;;;;;;5092251;28;19966;-77
2023/09/17 02:32:48;;;;;;;;;;;;;;;;;;5084409;28;20012;-76
2023/09/17 02:35:14;;;;;;;;;;;;;;;;;;5085485;28;20012;-76
2023/09/17 02:37:40;;;;;;;;;;;;;;;;;;5085959;28;19915;-77
2023/09/17 02:40:08;;;;;;;;;;;;;;;;;;5081686;28;19908;-75
2023/09/17 02:42:34;;;;;;;;;;;;;;;;;;5064640;28;19915;-75
2023/09/17 02:45:04;;;;;;;;;;;;;;;;;;5073398;28;20349;-75
2023/09/17 02:47:30;;;;;;;;;;;;;;;;;;5094450;28;19909;-74
2023/09/17 02:49:57;;;;;;;;;;;;;;;;;;5081904;28;19914;-75
2023/09/17 02:52:22;;;;;;;;;;;;;;;;;;5080670;28;19912;-75
2023/09/17 02:54:48;;;;;;;;;;;;;;;;;;5086774;28;19938;-75
2023/09/17 02:57:14;;;;;;;;;;;;;;;;;;5087759;28;19908;-74
2023/09/17 02:59:40;;;;;;;;;;;;;;;;;;5092630;28;19995;-76
2023/09/17 03:02:06;;;;;;;;;;;;;;;;;;5085787;28;19908;-76
2023/09/17 03:04:33;;;;;;;;;;;;;;;;;;5088179;28;19919;-76
2023/09/17 03:06:59;;;;;;;;;;;;;;;;;;5084521;28;20054;-75
2023/09/17 03:09:25;;;;;;;;;;;;;;;;;;5063294;28;19915;-79
2023/09/17 03:11:51;;;;;;;;;;;;;;;;;;5086872;28;19912;-75
2023/09/17 03:14:18;;;;;;;;;;;;;;;;;;5076859;28;19909;-75
2023/09/17 03:16:44;;;;;;;;;;;;;;;;;;5083671;28;19908;-75
2023/09/17 03:19:10;;;;;;;;;;;;;;;;;;5091960;28;19949;-76
2023/09/17 03:21:40;;;;;;;;;;;;;;;;;;5072898;28;19987;-76
2023/09/17 03:24:06;;;;;;;;;;;;;;;;;;5063604;28;19908;-76
2023/09/17 03:26:32;;;;;;;;;;;;;;;;;;5084256;28;19965;-76
2023/09/17 03:28:58;;;;;;;;;;;;;;;;;;5078559;28;19912;-74
2023/09/17 03:31:24;;;;;;;;;;;;;;;;;;5073231;28;19916;-77
2023/09/17 03:33:50;;;;;;;;;;;;;;;;;;5093857;28;19908;-77
2023/09/17 03:36:16;;;;;;;;;;;;;;;;;;5075831;28;20022;-76
2023/09/17 03:38:42;;;;;;;;;;;;;;;;;;5081390;28;19908;-76
2023/09/17 03:41:08;;;;;;;;;;;;;;;;;;5086716;28;19923;-75
2023/09/17 03:43:34;;;;;;;;;;;;;;;;;;5093790;28;20385;-74
2023/09/17 03:46:00;;;;;;;;;;;;;;;;;;5092893;28;19969;-77
2023/09/17 03:48:26;;;;;;;;;;;;;;;;;;5076120;28;20294;-75
2023/09/17 03:50:52;;;;;;;;;;;;;;;;;;5090475;28;19916;-75
2023/09/17 03:53:18;;;;;;;;;;;;;;;;;;5087049;28;20092;-76
2023/09/17 03:55:44;;;;;;;;;;;;;;;;;;5096213;28;19908;-75
2023/09/17 03:58:10;;;;;;;;;;;;;;;;;;5077947;28;19916;-76
2023/09/17 04:00:36;;;;;;;;;;;;;;;;;;5097400;28;19912;-77
2023/09/17 04:03:05;;;;;;;;;;;;;;;;;;5094757;28;20007;-78
2023/09/17 04:05:31;;;;;;;;;;;;;;;;;;5084024;28;19915;-77
2023/09/17 04:07:57;;;;;;;;;;;;;;;;;;5099818;28;19941;-76
2023/09/17 04:10:22;;;;;;;;;;;;;;;;;;5094904;28;20006;-77
2023/09/17 04:12:48;;;;;;;;;;;;;;;;;;5079229;28;19919;-76
2023/09/17 04:15:19;;;;;;;;;;;;;;;;;;5077021;28;19916;-77
2023/09/17 04:17:45;;;;;;;;;;;;;;;;;;5091931;28;20429;-77
2023/09/17 04:20:13;;;;;;;;;;;;;;;;;;5084046;28;19908;-77
2023/09/17 04:22:42;;;;;;;;;;;;;;;;;;5068050;28;19919;-77
2023/09/17 04:25:09;;;;;;;;;;;;;;;;;;5085102;28;19951;-78
2023/09/17 04:27:36;;;;;;;;;;;;;;;;;;5076610;28;19995;-76
2023/09/17 04:30:03;;;;;;;;;;;;;;;;;;5099245;28;19935;-77
2023/09/17 04:32:29;;;;;;;;;;;;;;;;;;5084664;28;19919;-76
2023/09/17 04:34:55;;;;;;;;;;;;;;;;;;5088594;28;20371;-76
2023/09/17 04:37:21;;;;;;;;;;;;;;;;;;5096913;28;19908;-76
2023/09/17 04:39:49;;;;;;;;;;;;;;;;;;5098449;28;19915;-76
2023/09/17 04:42:15;;;;;;;;;;;;;;;;;;5079229;28;19908;-76
2023/09/17 04:44:41;;;;;;;;;;;;;;;;;;5090060;28;19962;-76
2023/09/17 04:47:07;;;;;;;;;;;;;;;;;;5076611;28;19908;-77
2023/09/17 04:49:33;;;;;;;;;;;;;;;;;;5062187;28;19958;-76
2023/09/17 04:51:59;;;;;;;;;;;;;;;;;;5096442;28;19916;-76
2023/09/17 04:54:25;;;;;;;;;;;;;;;;;;5073864;28;20338;-77
2023/09/17 04:56:51;;;;;;;;;;;;;;;;;;5090264;28;19953;-76
2023/09/17 04:59:17;;;;;;;;;;;;;;;;;;5096251;28;19908;-76
2023/09/17 05:01:43;;;;;;;;;;;;;;;;;;5083105;28;19919;-77
2023/09/17 05:04:09;;;;;;;;;;;;;;;;;;5080528;28;19926;-78
2023/09/17 05:06:36;;;;;;;;;;;;;;;;;;5084352;28;19948;-77
2023/09/17 05:09:02;;;;;;;;;;;;;;;;;;5078766;28;19951;-77
2023/09/17 05:11:28;;;;;;;;;;;;;;;;;;5060556;28;19944;-77
2023/09/17 05:13:56;;;;;;;;;;;;;;;;;;5065371;28;19915;-77
2023/09/17 05:16:22;;;;;;;;;;;;;;;;;;5066480;28;19977;-77
2023/09/17 05:18:49;;;;;;;;;;;;;;;;;;5085995;28;20411;-77
2023/09/17 05:21:15;;;;;;;;;;;;;;;;;;5084883;28;20284;-77
2023/09/17 05:23:41;;;;;;;;;;;;;;;;;;5079583;28;19909;-77
2023/09/17 05:26:07;;;;;;;;;;;;;;;;;;5063711;28;20374;-77
2023/09/17 05:28:33;;;;;;;;;;;;;;;;;;5060317;28;20402;-77
2023/09/17 05:30:59;;;;;;;;;;;;;;;;;;5087491;28;19912;-76
2023/09/17 05:33:26;;;;;;;;;;;;;;;;;;5079063;28;19917;-76
2023/09/17 05:35:58;;;;;;;;;;;;;;;;;;5088494;28;19914;-76
2023/09/17 05:38:23;;;;;;;;;;;;;;;;;;5079589;28;19908;-77
2023/09/17 05:40:49;;;;;;;;;;;;;;;;;;5080564;28;19915;-77
2023/09/17 05:43:16;;;;;;;;;;;;;;;;;;5094005;28;19944;-77
2023/09/17 05:45:42;;;;;;;;;;;;;;;;;;5095366;28;19919;-77
2023/09/17 05:48:07;;;;;;;;;;;;;;;;;;5073848;28;19908;-78
2023/09/17 05:50:33;;;;;;;;;;;;;;;;;;5086413;28;19916;-77
2023/09/17 05:52:59;;;;;;;;;;;;;;;;;;5074627;28;20294;-73
2023/09/17 05:55:25;;;;;;;;;;;;;;;;;;5082626;28;20317;-73
2023/09/17 05:57:51;;;;;;;;;;;;;;;;;;5081626;28;20312;-74
2023/09/17 06:00:17;;;;;;;;;;;;;;;;;;5083641;28;19933;-73
2023/09/17 06:02:43;;;;;;;;;;;;;;;;;;5084295;28;19955;-73
2023/09/17 06:05:09;;;;;;;;;;;;;;;;;;5095130;28;19913;-74
2023/09/17 06:07:35;;;;;;;;;;;;;;;;;;5081341;28;19939;-73
2023/09/17 06:10:07;;;;;;;;;;;;;;;;;;5095341;28;20018;-76
2023/09/17 06:12:32;;;;;;;;;;;;;;;;;;5089612;28;19913;-75
2023/09/17 06:14:58;;;;;;;;;;;;;;;;;;5076971;28;19920;-73
2023/09/17 06:17:24;;;;;;;;;;;;;;;;;;5077391;28;19909;-74
2023/09/17 06:19:50;;;;;;;;;;;;;;;;;;5093695;28;19914;-74
2023/09/17 06:22:16;;;;;;;;;;;;;;;;;;5073960;28;19909;-74
2023/09/17 06:24:42;;;;;;;;;;;;;;;;;;5076977;28;19970;-75
2023/09/17 06:27:08;;;;;;;;;;;;;;;;;;5082680;28;19965;-74
2023/09/17 06:29:34;;;;;;;;;;;;;;;;;;5077087;28;19913;-74
2023/09/17 06:32:00;;;;;;;;;;;;;;;;;;5096952;28;20332;-74
2023/09/17 06:34:26;;;;;;;;;;;;;;;;;;5090013;28;19943;-73
2023/09/17 06:36:52;;;;;;;;;;;;;;;;;;5081661;28;20032;-74
2023/09/17 06:39:18;;;;;;;;;;;;;;;;;;5082608;28;19916;-74
2023/09/17 06:41:46;;;;;;;;;;;;;;;;;;5079123;28;20407;-75
2023/09/17 06:44:12;;;;;;;;;;;;;;;;;;5081094;28;19990;-74
2023/09/17 06:46:38;;;;;;;;;;;;;;;;;;5093599;28;20382;-73
2023/09/17 06:49:04;;;;;;;;;;;;;;;;;;5085895;28;19908;-74
2023/09/17 06:51:30;;;;;;;;;;;;;;;;;;5093293;28;19916;-75
2023/09/17 06:53:56;;;;;;;;;;;;;;;;;;5096681;28;19915;-73
2023/09/17 06:56:25;;;;;;;;;;;;;;;;;;5091759;28;19908;-75
2023/09/17 06:58:51;;;;;;;;;;;;;;;;;;5068355;28;19912;-73
2023/09/17 07:01:17;;;;;;;;;;;;;;;;;;5093816;28;19916;-73
2023/09/17 07:03:43;;;;;;;;;;;;;;;;;;5092224;28;20029;-73
2023/09/17 07:06:08;;;;;;;;;;;;;;;;;;5093778;28;19911;-73
2023/09/17 07:08:35;;;;;;;;;;;;;;;;;;5076533;28;19908;-73
2023/09/17 07:11:00;;;;;;;;;;;;;;;;;;5085559;28;19912;-74
2023/09/17 07:13:26;;;;;;;;;;;;;;;;;;5080911;28;19919;-74
2023/09/17 07:15:52;;;;;;;;;;;;;;;;;;5087210;28;19912;-73
2023/09/17 07:18:18;;;;;;;;;;;;;;;;;;5076912;28;19916;-73
2023/09/17 07:20:44;;;;;;;;;;;;;;;;;;5076729;28;19908;-73
2023/09/17 07:23:10;;;;;;;;;;;;;;;;;;5076291;28;19908;-73
2023/09/17 07:25:36;;;;;;;;;;;;;;;;;;5076480;28;20394;-73
2023/09/17 07:28:07;;;;;;;;;;;;;;;;;;5083848;28;19916;-73
2023/09/17 07:30:36;;;;;;;;;;;;;;;;;;5086072;28;20007;-73
2023/09/17 07:33:03;;;;;;;;;;;;;;;;;;5081298;28;20379;-73
2023/09/17 07:35:29;;;;;;;;;;;;;;;;;;5084675;28;20303;-74
2023/09/17 07:37:55;;;;;;;;;;;;;;;;;;5085836;28;19915;-75
2023/09/17 07:40:21;;;;;;;;;;;;;;;;;;5083963;28;19915;-74
2023/09/17 07:42:47;;;;;;;;;;;;;;;;;;5095532;28;19908;-75
2023/09/17 07:45:13;;;;;;;;;;;;;;;;;;5097539;28;19955;-75
2023/09/17 07:47:39;;;;;;;;;;;;;;;;;;5084336;28;19927;-73
2023/09/17 07:50:05;;;;;;;;;;;;;;;;;;5084364;28;20424;-73
2023/09/17 07:52:31;;;;;;;;;;;;;;;;;;5080423;28;19916;-73
2023/09/17 07:54:57;;;;;;;;;;;;;;;;;;5080159;28;19908;-73
2023/09/17 07:57:23;;;;;;;;;;;;;;;;;;5080200;28;19949;-73
2023/09/17 07:59:49;;;;;;;;;;;;;;;;;;5083898;28;19912;-73
2023/09/17 08:02:15;;;;;;;;;;;;;;;;;;5087270;28;19916;-74
2023/09/17 08:04:41;;;;;;;;;;;;;;;;;;5079556;28;19909;-74
2023/09/17 08:07:07;;;;;;;;;;;;;;;;;;5079457;28;19920;-72
2023/09/17 08:09:33;;;;;;;;;;;;;;;;;;5085245;28;20003;-73
2023/09/17 08:12:00;;;;;;;;;;;;;;;;;;5085388;28;20007;-75
2023/09/17 08:14:26;;;;;;;;;;;;;;;;;;5085297;28;19908;-74
2023/09/17 08:16:53;;;;;;;;;;;;;;;;;;5087567;28;19931;-76
2023/09/17 08:19:19;;;;;;;;;;;;;;;;;;5085452;28;20333;-74
2023/09/17 08:21:46;;;;;;;;;;;;;;;;;;5082691;28;19912;-75
2023/09/17 08:24:14;;;;;;;;;;;;;;;;;;5094567;28;20010;-75
2023/09/17 08:26:40;;;;;;;;;;;;;;;;;;5079377;28;19993;-76
2023/09/17 08:29:06;;;;;;;;;;;;;;;;;;5094902;28;19954;-75
2023/09/17 08:31:32;;;;;;;;;;;;;;;;;;5097027;28;19912;-75
2023/09/17 08:33:58;;;;;;;;;;;;;;;;;;5096609;28;20364;-74
2023/09/17 08:36:24;;;;;;;;;;;;;;;;;;5094062;28;19982;-75
2023/09/17 08:38:50;;;;;;;;;;;;;;;;;;5094093;28;19912;-74
2023/09/17 08:41:16;;;;;;;;;;;;;;;;;;5085556;28;19909;-74
2023/09/17 08:43:42;;;;;;;;;;;;;;;;;;5086185;28;19912;-75
2023/09/17 08:46:08;;;;;;;;;;;;;;;;;;5084333;28;20324;-75
2023/09/17 08:48:34;;;;;;;;;;;;;;;;;;5091840;28;19908;-74
2023/09/17 08:50:59;;;;;;;;;;;;;;;;;;5088400;28;19916;-74
2023/09/17 08:53:26;;;;;;;;;;;;;;;;;;5090495;28;19912;-73
2023/09/17 08:55:54;;;;;;;;;;;;;;;;;;5084955;28;19908;-73
2023/09/17 08:58:21;;;;;;;;;;;;;;;;;;5085650;28;19908;-74
2023/09/17 09:00:47;;;;;;;;;;;;;;;;;;5096536;28;19916;-74
2023/09/17 09:03:13;;;;;;;;;;;;;;;;;;5094284;28;20000;-74
2023/09/17 09:05:39;;;;;;;;;;;;;;;;;;5088208;28;20049;-72
2023/09/17 09:08:05;;;;;;;;;;;;;;;;;;5083053;28;19989;-74
2023/09/17 09:10:31;;;;;;;;;;;;;;;;;;5084762;28;19965;-74
2023/09/17 09:12:59;;;;;;;;;;;;;;;;;;5087735;28;19914;-74
2023/09/17 09:15:25;;;;;;;;;;;;;;;;;;5093714;28;19908;-73
2023/09/17 09:17:54;;;;;;;;;;;;;;;;;;5084672;28;19908;-74
2023/09/17 09:20:20;;;;;;;;;;;;;;;;;;5083534;28;19909;-74
2023/09/17 09:22:46;;;;;;;;;;;;;;;;;;5091459;28;20002;-75
2023/09/17 09:25:12;;;;;;;;;;;;;;;;;;5085210;28;19913;-75
2023/09/17 09:27:38;;;;;;;;;;;;;;;;;;5079468;28;19915;-75
2023/09/17 09:30:04;;;;;;;;;;;;;;;;;;5082810;28;20351;-75
2023/09/17 09:32:30;;;;;;;;;;;;;;;;;;5078486;28;19962;-75
2023/09/17 09:34:57;;;;;;;;;;;;;;;;;;5078350;28;19908;-74
2023/09/17 09:37:24;;;;;;;;;;;;;;;;;;5083484;28;19908;-74
2023/09/17 09:39:50;;;;;;;;;;;;;;;;;;5096550;28;19961;-74
2023/09/17 09:42:16;;;;;;;;;;;;;;;;;;5086463;28;19921;-74
2023/09/17 09:44:42;;;;;;;;;;;;;;;;;;5085838;28;19912;-75
2023/09/17 09:47:08;;;;;;;;;;;;;;;;;;5079750;28;19909;-74
2023/09/17 09:49:34;;;;;;;;;;;;;;;;;;5081283;28;20041;-74
2023/09/17 09:52:00;;;;;;;;;;;;;;;;;;5083626;28;19918;-74
2023/09/17 09:54:26;;;;;;;;;;;;;;;;;;5082025;28;19908;-75
2023/09/17 09:56:52;;;;;;;;;;;;;;;;;;5092519;28;20440;-75
2023/09/17 09:59:18;;;;;;;;;;;;;;;;;;5078149;28;19909;-75
2023/09/17 10:01:43;;;;;;;;;;;;;;;;;;5093132;28;20397;-75
2023/09/17 10:04:10;;;;;;;;;;;;;;;;;;5093064;28;20306;-74
2023/09/17 10:06:36;;;;;;;;;;;;;;;;;;5088967;28;20393;-75
2023/09/17 10:09:03;;;;;;;;;;;;;;;;;;5092789;28;19908;-75
2023/09/17 10:11:30;;;;;;;;;;;;;;;;;;5081464;28;19915;-75
2023/09/17 10:13:55;;;;;;;;;;;;;;;;;;5098069;28;19922;-77
2023/09/17 10:16:22;;;;;;;;;;;;;;;;;;5095306;28;19908;-75
2023/09/17 10:18:48;;;;;;;;;;;;;;;;;;5095821;28;19920;-75
2023/09/17 10:21:13;;;;;;;;;;;;;;;;;;5082581;28;19908;-75
2023/09/17 10:23:39;;;;;;;;;;;;;;;;;;5092639;28;20000;-75
2023/09/17 10:26:05;;;;;;;;;;;;;;;;;;5084942;28;19944;-75
2023/09/17 10:28:34;;;;;;;;;;;;;;;;;;5096411;28;19908;-75
2023/09/17 10:31:00;;;;;;;;;;;;;;;;;;5086178;28;19938;-76
2023/09/17 10:33:26;;;;;;;;;;;;;;;;;;5094584;28;20383;-75
2023/09/17 10:35:52;;;;;;;;;;;;;;;;;;5091780;28;19969;-75
2023/09/17 10:38:18;;;;;;;;;;;;;;;;;;5091251;28;19908;-75
2023/09/17 10:40:44;;;;;;;;;;;;;;;;;;5083940;28;19918;-75
2023/09/17 10:43:10;;;;;;;;;;;;;;;;;;5094714;28;20264;-75
2023/09/17 10:45:37;;;;;;;;;;;;;;;;;;5095012;28;19913;-76
2023/09/17 10:48:03;;;;;;;;;;;;;;;;;;5082859;28;19908;-75
2023/09/17 10:50:29;;;;;;;;;;;;;;;;;;5077919;28;19924;-75
2023/09/17 10:52:55;;;;;;;;;;;;;;;;;;5078671;28;19908;-75
2023/09/17 10:55:21;;;;;;;;;;;;;;;;;;5078393;28;20038;-75
2023/09/17 10:57:47;;;;;;;;;;;;;;;;;;5095329;28;19947;-76
2023/09/17 11:00:13;;;;;;;;;;;;;;;;;;5079175;28;20429;-75
2023/09/17 11:02:39;;;;;;;;;;;;;;;;;;5085560;28;19919;-75
2023/09/17 11:05:07;;;;;;;;;;;;;;;;;;5098504;28;19908;-75
2023/09/17 11:07:33;;;;;;;;;;;;;;;;;;5085317;28;19916;-75
2023/09/17 11:10:01;;;;;;;;;;;;;;;;;;5087522;28;20003;-75
2023/09/17 11:12:27;;;;;;;;;;;;;;;;;;5081209;28;19956;-76
2023/09/17 11:14:53;;;;;;;;;;;;;;;;;;5080953;28;20065;-75
2023/09/17 11:17:19;;;;;;;;;;;;;;;;;;5081132;28;20336;-75
2023/09/17 11:19:45;;;;;;;;;;;;;;;;;;5083886;28;19932;-75
2023/09/17 11:22:11;;;;;;;;;;;;;;;;;;5083672;28;19914;-75
2023/09/17 11:24:37;;;;;;;;;;;;;;;;;;5086171;28;20287;-75
2023/09/17 11:27:04;;;;;;;;;;;;;;;;;;5080775;28;20007;-75
2023/09/17 11:29:30;;;;;;;;;;;;;;;;;;5085600;28;19908;-75
2023/09/17 11:31:57;;;;;;;;;;;;;;;;;;5086870;28;19920;-77
2023/09/17 11:34:23;;;;;;;;;;;;;;;;;;5079136;28;20283;-75
2023/09/17 11:36:50;;;;;;;;;;;;;;;;;;5086786;28;19920;-75
2023/09/17 11:39:20;;;;;;;;;;;;;;;;;;5081611;28;19923;-76
2023/09/17 11:41:48;;;;;;;;;;;;;;;;;;5084647;28;20007;-75
2023/09/17 11:44:14;;;;;;;;;;;;;;;;;;5089921;28;19908;-73
2023/09/17 11:46:40;;;;;;;;;;;;;;;;;;5068562;28;19908;-74
2023/09/17 11:49:08;;;;;;;;;;;;;;;;;;5081943;28;19909;-74
2023/09/17 11:51:34;;;;;;;;;;;;;;;;;;5081784;28;19920;-74
2023/09/17 11:54:00;;;;;;;;;;;;;;;;;;5086627;28;19912;-73
2023/09/17 11:56:27;;;;;;;;;;;;;;;;;;5081137;28;20326;-73
2023/09/17 11:58:53;;;;;;;;;;;;;;;;;;5080995;28;20383;-73
2023/09/17 12:01:19;;;;;;;;;;;;;;;;;;5063241;28;19919;-73
2023/09/17 12:03:45;;;;;;;;;;;;;;;;;;5083492;28;19909;-74
2023/09/17 12:08:41;;;;;;;;;;;;;;;;;;5108158;27;19924;-74
2023/09/17 12:11:11;;;;;;;;;;;;;;;;;;5099843;27;19969;-73
2023/09/17 12:13:37;;;;;;;;;;;;;;;;;;5100135;27;19915;-74
2023/09/17 12:16:03;;;;;;;;;;;;;;;;;;5114544;27;19911;-74
2023/09/17 12:18:29;;;;;;;;;;;;;;;;;;5062006;28;19916;-74
2023/09/17 12:20:59;;;;;;;;;;;;;;;;;;5079822;28;20295;-74
2023/09/17 12:23:41;;;;;;;;;;;;;;;;;;5079960;28;19996;-74
2023/09/17 12:26:07;;;;;;;;;;;;;;;;;;5093616;28;20263;-74
2023/09/17 12:28:33;;;;;;;;;;;;;;;;;;5080001;28;19914;-74
2023/09/17 12:30:59;;;;;;;;;;;;;;;;;;5079568;28;19919;-74
2023/09/17 12:33:25;;;;;;;;;;;;;;;;;;5079215;28;19913;-74
2023/09/17 12:35:51;;;;;;;;;;;;;;;;;;5083921;28;19914;-73
2023/09/17 12:38:17;;;;;;;;;;;;;;;;;;5080604;28;19935;-74
2023/09/17 12:40:43;;;;;;;;;;;;;;;;;;5080120;28;19918;-74
2023/09/17 12:43:09;;;;;;;;;;;;;;;;;;5081419;28;19915;-74
2023/09/17 12:45:35;;;;;;;;;;;;;;;;;;5083181;28;19909;-73
2023/09/17 12:48:00;;;;;;;;;;;;;;;;;;5085161;28;19952;-74
2023/09/17 12:50:26;;;;;;;;;;;;;;;;;;5085197;28;19912;-74
2023/09/17 12:52:52;;;;;;;;;;;;;;;;;;5079401;28;19923;-74
2023/09/17 12:55:18;;;;;;;;;;;;;;;;;;5079091;28;19913;-75
2023/09/17 12:57:44;;;;;;;;;;;;;;;;;;5081679;28;19995;-74
2023/09/17 13:00:10;;;;;;;;;;;;;;;;;;5082190;28;19996;-74
2023/09/17 13:02:38;;;;;;;;;;;;;;;;;;5079012;28;20383;-74
2023/09/17 13:05:04;;;;;;;;;;;;;;;;;;5064921;28;20394;-74
2023/09/17 13:07:29;;;;;;;;;;;;;;;;;;5083516;28;19946;-74
2023/09/17 13:09:55;;;;;;;;;;;;;;;;;;5084880;28;19915;-74
2023/09/17 13:12:24;;;;;;;;;;;;;;;;;;5079130;28;19958;-74
2023/09/17 13:14:51;;;;;;;;;;;;;;;;;;5079107;28;19908;-73
2023/09/17 13:17:17;;;;;;;;;;;;;;;;;;5080122;28;19908;-74
2023/09/17 13:19:43;;;;;;;;;;;;;;;;;;5082515;28;19958;-74
2023/09/17 13:22:10;;;;;;;;;;;;;;;;;;5066291;28;20286;-75
2023/09/17 13:24:37;;;;;;;;;;;;;;;;;;5078610;28;19915;-73
2023/09/17 13:27:05;;;;;;;;;;;;;;;;;;5078573;28;19944;-73
2023/09/17 13:29:31;;;;;;;;;;;;;;;;;;5060736;28;19995;-73
2023/09/17 13:31:57;;;;;;;;;;;;;;;;;;5084357;28;20033;-73
2023/09/17 13:34:23;;;;;;;;;;;;;;;;;;5078213;28;19909;-74
2023/09/17 13:36:49;;;;;;;;;;;;;;;;;;5078472;28;20041;-74
2023/09/17 13:39:15;;;;;;;;;;;;;;;;;;5078095;28;19915;-74
2023/09/17 13:41:41;;;;;;;;;;;;;;;;;;5079973;28;19915;-74
2023/09/17 13:44:07;;;;;;;;;;;;;;;;;;5087569;28;19915;-74
2023/09/17 13:46:33;;;;;;;;;;;;;;;;;;5060470;28;20340;-74
2023/09/17 13:48:59;;;;;;;;;;;;;;;;;;5078323;28;20387;-73
2023/09/17 13:51:25;;;;;;;;;;;;;;;;;;5078171;28;19935;-74
2023/09/17 13:53:50;;;;;;;;;;;;;;;;;;5082103;28;20406;-74
2023/09/17 13:56:16;;;;;;;;;;;;;;;;;;5079514;28;19923;-73
2023/09/17 13:58:42;;;;;;;;;;;;;;;;;;5078075;28;19913;-74
2023/09/17 14:01:08;;;;;;;;;;;;;;;;;;5078124;28;19940;-74
2023/09/17 14:03:35;;;;;;;;;;;;;;;;;;5077818;28;20454;-74
2023/09/17 14:06:00;;;;;;;;;;;;;;;;;;5076205;28;19908;-73
2023/09/17 14:08:29;;;;;;;;;;;;;;;;;;5077587;28;19916;-73
2023/09/17 14:10:55;;;;;;;;;;;;;;;;;;5059902;28;20032;-74
2023/09/17 14:13:21;;;;;;;;;;;;;;;;;;5059615;28;19951;-74
2023/09/17 14:15:49;;;;;;;;;;;;;;;;;;5063299;28;20217;-75
2023/09/17 14:18:16;;;;;;;;;;;;;;;;;;5079607;28;19912;-75
2023/09/17 14:20:42;;;;;;;;;;;;;;;;;;5078145;28;19909;-75
2023/09/17 14:23:08;;;;;;;;;;;;;;;;;;5077417;28;19928;-73
2023/09/17 14:25:34;;;;;;;;;;;;;;;;;;5077627;28;19982;-74
2023/09/17 14:28:00;;;;;;;;;;;;;;;;;;5083200;28;19908;-74
2023/09/17 14:30:26;;;;;;;;;;;;;;;;;;5077377;28;19908;-74
2023/09/17 14:32:53;;;;;;;;;;;;;;;;;;5077377;28;20404;-73
2023/09/17 14:35:19;;;;;;;;;;;;;;;;;;5077224;28;19909;-73
2023/09/17 14:37:45;;;;;;;;;;;;;;;;;;5079953;28;19912;-74
2023/09/17 14:40:11;;;;;;;;;;;;;;;;;;5080530;28;19915;-74
2023/09/17 14:42:37;;;;;;;;;;;;;;;;;;5077402;28;20071;-74
2023/09/17 14:45:03;;;;;;;;;;;;;;;;;;5082780;28;19978;-74
2023/09/17 14:47:29;;;;;;;;;;;;;;;;;;5077576;28;20391;-74
2023/09/17 14:49:55;;;;;;;;;;;;;;;;;;5083040;28;19909;-75
2023/09/17 14:52:21;;;;;;;;;;;;;;;;;;5077438;28;19986;-74
2023/09/17 14:54:47;;;;;;;;;;;;;;;;;;5077152;28;19909;-75
2023/09/17 14:57:13;;;;;;;;;;;;;;;;;;5077350;28;19909;-75
2023/09/17 14:59:39;;;;;;;;;;;;;;;;;;5078393;28;19935;-74
2023/09/17 15:02:05;;;;;;;;;;;;;;;;;;5075926;28;19908;-74
2023/09/17 15:04:31;;;;;;;;;;;;;;;;;;5076938;28;19915;-74
2023/09/17 15:06:57;;;;;;;;;;;;;;;;;;5076954;28;20371;-74
2023/09/17 15:09:23;;;;;;;;;;;;;;;;;;5077317;28;19915;-75
2023/09/17 15:11:49;;;;;;;;;;;;;;;;;;5081013;28;19912;-74
2023/09/17 15:14:15;;;;;;;;;;;;;;;;;;5079033;28;19956;-74
2023/09/17 15:16:40;;;;;;;;;;;;;;;;;;5077329;28;19962;-75
2023/09/17 15:19:06;;;;;;;;;;;;;;;;;;5059138;28;20387;-75
2023/09/17 15:21:32;;;;;;;;;;;;;;;;;;5077240;28;19915;-74
2023/09/17 15:23:58;;;;;;;;;;;;;;;;;;5083196;28;20302;-75
2023/09/17 15:26:25;;;;;;;;;;;;;;;;;;5059083;28;19909;-75
2023/09/17 15:28:51;;;;;;;;;;;;;;;;;;5077426;28;19970;-74
2023/09/17 15:31:17;;;;;;;;;;;;;;;;;;5076932;28;20395;-74
2023/09/17 15:33:43;;;;;;;;;;;;;;;;;;5078777;28;19990;-74
2023/09/17 15:36:09;;;;;;;;;;;;;;;;;;5080518;28;20383;-74
2023/09/17 15:38:35;;;;;;;;;;;;;;;;;;5076998;28;19909;-74
2023/09/17 15:41:03;;;;;;;;;;;;;;;;;;5077120;28;19951;-73
2023/09/17 15:43:29;;;;;;;;;;;;;;;;;;5081498;28;19909;-74
2023/09/17 15:45:55;;;;;;;;;;;;;;;;;;5083303;28;20004;-74
2023/09/17 15:48:21;;;;;;;;;;;;;;;;;;5078570;28;20382;-74
2023/09/17 15:50:51;;;;;;;;;;;;;;;;;;5081858;28;19921;-74
2023/09/17 15:53:17;;;;;;;;;;;;;;;;;;5081969;28;19915;-73
2023/09/17 15:55:43;;;;;;;;;;;;;;;;;;5083805;28;19912;-74
2023/09/17 15:58:11;;;;;;;;;;;;;;;;;;5067234;28;19908;-74
2023/09/17 16:00:37;;;;;;;;;;;;;;;;;;5080792;28;19974;-74
2023/09/17 16:03:03;;;;;;;;;;;;;;;;;;5080508;28;19916;-73
2023/09/17 16:05:29;;;;;;;;;;;;;;;;;;5093117;28;19908;-74
2023/09/17 16:07:54;;;;;;;;;;;;;;;;;;5068496;28;19948;-75
2023/09/17 16:10:22;;;;;;;;;;;;;;;;;;5081028;28;19909;-74
2023/09/17 16:12:48;;;;;;;;;;;;;;;;;;5080356;28;20442;-72
2023/09/17 16:15:14;;;;;;;;;;;;;;;;;;5080206;28;19913;-74
2023/09/17 16:17:40;;;;;;;;;;;;;;;;;;5063346;28;19962;-74
2023/09/17 16:20:06;;;;;;;;;;;;;;;;;;5084762;28;19912;-74
2023/09/17 16:22:32;;;;;;;;;;;;;;;;;;5080186;28;19990;-74
2023/09/17 16:24:59;;;;;;;;;;;;;;;;;;5079952;28;20347;-73
2023/09/17 16:27:24;;;;;;;;;;;;;;;;;;5080345;28;19908;-74
2023/09/17 16:29:51;;;;;;;;;;;;;;;;;;5089645;28;19948;-74
2023/09/17 16:32:18;;;;;;;;;;;;;;;;;;5081424;28;19919;-75
2023/09/17 16:34:44;;;;;;;;;;;;;;;;;;5079794;28;19912;-73
2023/09/17 16:37:10;;;;;;;;;;;;;;;;;;5089987;28;19908;-74
2023/09/17 16:39:37;;;;;;;;;;;;;;;;;;5083423;28;19912;-75
2023/09/17 16:42:03;;;;;;;;;;;;;;;;;;5085412;28;19919;-75